createdAt,value
2023-02-06T00:02:40.693Z,1.22
2023-02-06T00:07:43.289Z,1.23
2023-02-06T00:12:47.098Z,1.22
2023-02-06T00:17:49.584Z,1.25
2023-02-06T00:22:52.087Z,1.28
2023-02-06T00:27:55.957Z,1.29
2023-02-06T00:32:58.477Z,1.30
2023-02-06T00:38:02.416Z,1.33
2023-02-06T00:43:06.550Z,1.36
2023-02-06T00:48:10.101Z,1.41
2023-02-06T00:53:12.565Z,1.43
2023-02-06T00:58:16.401Z,1.46
2023-02-06T01:03:18.970Z,1.51
2023-02-06T01:08:21.481Z,1.54
2023-02-06T01:13:25.326Z,1.60
2023-02-06T01:18:27.826Z,1.64
2023-02-06T01:23:30.404Z,1.67
2023-02-06T01:28:36.573Z,1.68
2023-02-06T01:33:39.308Z,1.70
2023-02-06T01:38:42.547Z,1.70
2023-02-06T01:43:48.782Z,1.72
2023-02-06T01:48:54.346Z,1.72
2023-02-06T01:54:01.005Z,1.74
2023-02-06T01:59:05.335Z,1.77
2023-02-06T02:04:11.883Z,1.81
2023-02-06T02:09:14.971Z,1.79
2023-02-06T02:14:19.051Z,1.77
2023-02-06T02:19:57.772Z,1.82
2023-02-06T02:25:29.165Z,1.88
2023-02-06T02:31:08.936Z,1.97
2023-02-06T02:36:18.687Z,2.06
2023-02-06T02:41:27.639Z,2.15
2023-02-06T02:46:33.814Z,2.21
2023-02-06T02:51:40.212Z,2.30
2023-02-06T02:56:43.666Z,2.35
2023-02-06T03:01:52.909Z,2.41
2023-02-06T03:07:08.482Z,2.46
2023-02-06T03:12:15.747Z,2.47
2023-02-06T03:17:25.646Z,2.48
2023-02-06T03:22:31.564Z,2.46
2023-02-06T03:27:35.141Z,2.44
2023-02-06T03:32:43.699Z,2.45
2023-02-06T03:37:49.512Z,2.50
2023-02-06T03:42:56.955Z,2.55
2023-02-06T03:48:03.330Z,2.58
2023-02-06T03:53:08.428Z,2.58
2023-02-06T03:58:13.871Z,2.54
2023-02-06T04:03:16.795Z,2.51
2023-02-06T04:08:20.597Z,2.49
2023-02-06T04:13:23.132Z,2.48
2023-02-06T04:18:25.627Z,2.50
2023-02-06T04:23:29.412Z,2.50
2023-02-06T04:28:31.916Z,2.47
2023-02-06T04:33:34.452Z,2.42
2023-02-06T04:38:38.289Z,2.43
2023-02-06T04:43:41.018Z,2.39
2023-02-06T04:48:43.558Z,2.36
2023-02-06T04:53:50.010Z,2.38
2023-02-06T04:58:52.685Z,2.35
2023-02-06T05:03:55.195Z,2.35
2023-02-06T05:08:59.118Z,2.34
2023-02-06T05:14:01.603Z,2.34
2023-02-06T05:19:04.078Z,2.37
2023-02-06T05:24:08.030Z,2.39
2023-02-06T05:29:10.513Z,2.41
2023-02-06T05:34:13.002Z,2.42
2023-02-06T05:39:16.792Z,2.41
2023-02-06T05:44:19.328Z,2.49
2023-02-06T05:49:21.831Z,2.42
2023-02-06T05:54:25.822Z,2.41
2023-02-06T05:59:28.305Z,2.43
2023-02-06T06:04:30.954Z,2.45
2023-02-06T06:09:34.814Z,2.46
2023-02-06T06:14:37.275Z,2.41
2023-02-06T06:19:39.754Z,2.40
2023-02-06T06:24:43.583Z,2.35
2023-02-06T06:29:46.106Z,2.31
2023-02-06T06:34:48.606Z,2.27
2023-02-06T06:39:52.400Z,2.27
2023-02-06T06:44:54.882Z,2.30
2023-02-06T06:49:57.374Z,2.28
2023-02-06T06:55:01.201Z,2.27
2023-02-06T07:00:04.563Z,2.26
2023-02-06T07:05:07.765Z,2.23
2023-02-06T07:10:13.212Z,2.20
2023-02-06T07:15:15.808Z,2.22
2023-02-06T07:20:18.536Z,2.20
2023-02-06T07:25:22.402Z,2.21
2023-02-06T07:30:25.285Z,2.22
2023-02-06T07:35:27.814Z,2.21
2023-02-06T07:40:44.086Z,2.25
2023-02-06T07:45:47.437Z,2.27
2023-02-06T07:50:49.926Z,2.25
2023-02-06T07:55:53.758Z,2.29
2023-02-06T08:00:56.309Z,2.37
2023-02-06T08:05:58.884Z,2.38
2023-02-06T08:11:05.908Z,2.38
2023-02-06T08:16:11.596Z,2.32
2023-02-06T08:21:16.026Z,2.36
2023-02-06T08:26:21.653Z,2.35
2023-02-06T08:31:26.231Z,2.34
2023-02-06T08:36:31.494Z,2.29
2023-02-06T08:41:38.078Z,2.23
2023-02-06T08:46:41.187Z,2.25
2023-02-06T08:51:43.772Z,2.34
2023-02-06T08:56:47.964Z,2.42
2023-02-06T09:01:52.035Z,2.47
2023-02-06T09:06:54.519Z,2.52
2023-02-06T09:12:02.139Z,2.60
2023-02-06T09:17:04.665Z,2.62
2023-02-06T09:22:07.322Z,2.68
2023-02-06T09:27:11.150Z,2.70
2023-02-06T09:32:13.951Z,2.68
2023-02-06T09:37:16.486Z,2.64
2023-02-06T09:42:30.691Z,2.64
2023-02-06T09:47:36.214Z,2.69
2023-02-06T09:52:55.725Z,2.70
2023-02-06T09:58:07.500Z,2.68
2023-02-06T10:03:31.479Z,2.69
2023-02-06T10:08:39.874Z,2.78
2023-02-06T10:13:49.777Z,2.94
2023-02-06T10:18:54.863Z,2.93
2023-02-06T10:24:05.078Z,2.95
2023-02-06T10:29:16.934Z,2.96
2023-02-06T10:34:39.028Z,2.98
2023-02-06T10:39:53.997Z,3.02
2023-02-06T10:45:18.663Z,3.04
2023-02-06T10:50:28.656Z,3.05
2023-02-06T10:55:41.057Z,3.13
2023-02-06T11:00:46.938Z,3.15
2023-02-06T11:05:50.054Z,3.22
2023-02-06T11:10:52.772Z,3.21
2023-02-06T11:16:02.449Z,3.13
2023-02-06T11:21:05.852Z,3.27
2023-02-06T11:26:14.014Z,3.25
2023-02-06T11:31:20.515Z,3.43
2023-02-06T11:36:27.239Z,3.38
2023-02-06T11:41:31.021Z,3.38
2023-02-06T11:46:36.738Z,3.35
2023-02-06T11:51:49.423Z,3.30
2023-02-06T11:57:04.889Z,3.41
2023-02-06T12:02:27.310Z,3.51
2023-02-06T12:07:33.705Z,3.54
2023-02-06T12:12:41.406Z,3.54
2023-02-06T12:17:51.742Z,3.59
2023-02-06T12:22:57.710Z,3.62
2023-02-06T12:28:07.045Z,3.63
2023-02-06T12:33:16.900Z,3.56
2023-02-06T12:38:27.110Z,3.56
2023-02-06T12:43:33.581Z,3.59
2023-02-06T12:48:42.542Z,3.64
2023-02-06T12:53:50.074Z,3.65
2023-02-06T12:59:03.376Z,3.59
2023-02-06T13:04:13.290Z,3.60
2023-02-06T13:09:22.342Z,3.50
2023-02-06T13:14:26.927Z,3.54
2023-02-06T13:19:53.504Z,3.46
2023-02-06T13:24:58.622Z,3.60
2023-02-06T13:30:42.348Z,3.67
2023-02-06T13:36:01.594Z,3.77
2023-02-06T13:41:28.968Z,3.69
2023-02-06T13:46:52.732Z,3.63
2023-02-06T13:52:05.234Z,3.59
2023-02-06T13:57:21.673Z,3.59
2023-02-06T14:02:29.928Z,3.56
2023-02-06T14:07:49.385Z,3.47
2023-02-06T14:13:08.135Z,3.38
2023-02-06T14:18:26.933Z,3.48
2023-02-06T14:23:59.112Z,3.52
2023-02-06T14:29:14.971Z,3.50
2023-02-06T14:34:29.772Z,3.38
2023-02-06T14:39:43.041Z,3.44
2023-02-06T14:44:51.194Z,3.49
2023-02-06T14:49:55.169Z,3.48
2023-02-06T14:54:58.976Z,3.34
2023-02-06T15:00:04.453Z,3.33
2023-02-06T15:05:07.303Z,3.42
2023-02-06T15:10:16.054Z,3.37
2023-02-06T15:15:21.315Z,3.38
2023-02-06T15:20:30.079Z,3.33
2023-02-06T15:25:46.436Z,3.30
2023-02-06T15:30:53.974Z,3.17
2023-02-06T15:35:59.396Z,3.07
2023-02-06T15:41:06.395Z,2.94
2023-02-06T15:46:09.298Z,3.34
2023-02-06T15:51:21.587Z,3.40
2023-02-06T15:56:29.433Z,3.21
2023-02-06T16:01:37.194Z,3.15
2023-02-06T16:06:40.052Z,3.15
2023-02-06T16:11:52.892Z,2.94
2023-02-06T16:17:01.614Z,2.79
2023-02-06T16:22:06.398Z,2.77
2023-02-06T16:27:21.773Z,2.77
2023-02-06T16:32:26.561Z,2.75
2023-02-06T16:37:31.701Z,2.69
2023-02-06T16:42:37.947Z,2.68
2023-02-06T16:47:40.551Z,2.65
2023-02-06T16:52:48.575Z,2.60
2023-02-06T16:57:54.373Z,2.55
2023-02-06T17:02:57.422Z,2.49
2023-02-06T17:08:01.560Z,2.50
2023-02-06T17:13:05.410Z,2.48
2023-02-06T17:18:07.970Z,2.41
2023-02-06T17:23:11.541Z,2.36
2023-02-06T17:28:20.626Z,2.23
2023-02-06T17:33:23.162Z,2.10
2023-02-06T17:38:25.743Z,2.05
2023-02-06T17:43:30.275Z,2.01
2023-02-06T17:48:36.331Z,1.99
2023-02-06T17:53:39.097Z,1.94
2023-02-06T17:58:44.171Z,1.89
2023-02-06T18:03:48.072Z,1.83
2023-02-06T18:08:50.655Z,1.78
2023-02-06T18:13:55.777Z,1.71
2023-02-06T18:18:58.734Z,1.63
2023-02-06T18:24:02.179Z,1.51
2023-02-06T18:29:06.894Z,1.38
2023-02-06T18:34:09.745Z,1.26
2023-02-06T18:39:14.012Z,1.18
2023-02-06T18:44:17.940Z,1.08
2023-02-06T18:49:20.585Z,1.03
2023-02-06T18:54:23.082Z,0.98
2023-02-06T18:59:26.911Z,0.91
2023-02-06T19:04:29.648Z,0.82
2023-02-06T19:09:32.185Z,0.72
2023-02-06T19:14:36.059Z,0.63
2023-02-06T19:19:38.554Z,0.55
2023-02-06T19:24:42.299Z,0.49
2023-02-06T19:29:46.323Z,0.46
2023-02-06T19:34:48.860Z,0.40
2023-02-06T19:39:51.404Z,0.34
2023-02-06T19:44:55.839Z,0.21
2023-02-06T19:49:58.342Z,0.19
2023-02-06T19:55:00.869Z,0.17
2023-02-06T20:00:05.856Z,0.13
2023-02-06T20:05:09.530Z,0.07
2023-02-06T20:10:12.070Z,0.00
2023-02-06T20:15:16.057Z,-0.07
2023-02-06T20:20:18.986Z,-0.16
2023-02-06T20:25:21.995Z,-0.23
2023-02-06T20:30:26.468Z,-0.31
2023-02-06T20:35:29.018Z,-0.37
2023-02-06T20:40:31.649Z,-0.44
2023-02-06T20:45:36.992Z,-0.50
2023-02-06T20:50:39.682Z,-0.63
2023-02-06T20:55:44.050Z,-0.70
2023-02-06T21:00:50.016Z,-0.76
2023-02-06T21:05:57.012Z,-0.87
2023-02-06T21:10:59.550Z,-0.93
2023-02-06T21:16:03.515Z,-1.11
2023-02-06T21:21:09.416Z,-1.25
2023-02-06T21:26:13.953Z,-1.23
2023-02-06T21:31:19.769Z,-1.20
2023-02-06T21:36:22.825Z,-1.22
2023-02-06T21:41:25.358Z,-1.27
2023-02-06T21:46:30.840Z,-1.33
2023-02-06T21:51:33.468Z,-1.40
2023-02-06T21:56:38.036Z,-1.45
2023-02-06T22:01:42.080Z,-1.48
2023-02-06T22:06:44.617Z,-1.55
2023-02-06T22:11:47.832Z,-1.59
2023-02-06T22:16:52.165Z,-1.64
2023-02-06T22:21:54.752Z,-1.75
2023-02-06T22:26:57.301Z,-1.76
2023-02-06T22:32:04.316Z,-1.80
2023-02-06T22:37:06.835Z,-1.88
2023-02-06T22:42:09.382Z,-1.98
2023-02-06T22:47:13.231Z,-2.03
2023-02-06T22:52:33.588Z,-2.12
2023-02-06T22:57:37.189Z,-2.26
2023-02-06T23:02:41.094Z,-2.24
2023-02-06T23:07:43.598Z,-2.13
2023-02-06T23:12:46.069Z,-2.10
2023-02-06T23:17:49.893Z,-2.16
2023-02-06T23:22:52.389Z,-2.24
2023-02-06T23:27:55.285Z,-2.28
2023-02-06T23:32:59.143Z,-2.34
2023-02-06T23:38:01.663Z,-2.44
2023-02-06T23:43:04.417Z,-2.48
2023-02-06T23:48:08.486Z,-2.50
2023-02-06T23:53:12.218Z,-2.49
2023-02-06T23:58:14.737Z,-2.47
